Time;durP1;ratioP1;P1;durP2;ratioP2;P2;SDS_P1;SDS_P2;PMS_P1;PMS_P2;Temp;Humidity;BMP_temperature;BMP_pressure;BME280_temperature;BME280_humidity;BME280_pressure;Samples;Min_cycle;Max_cycle;Signal;HPM_P1;HPM_P2
2023/07/16 00:00:42;;;;;;;2.97;2.23;;;25.10;85.10;;;;;;5084561;28;20306;-71
2023/07/16 00:03:09;;;;;;;2.97;2.10;;;24.80;84.70;;;;;;5088787;28;20286;-71
2023/07/16 00:05:38;;;;;;;1.83;1.70;;;24.80;84.90;;;;;;5090685;28;20254;-71
2023/07/16 00:08:06;;;;;;;2.03;1.80;;;24.80;84.40;;;;;;5091014;28;20266;-71
2023/07/16 00:10:36;;;;;;;1.80;1.70;;;24.80;84.70;;;;;;5071544;28;20205;-71
2023/07/16 00:13:02;;;;;;;2.00;1.80;;;24.70;84.30;;;;;;5070897;28;20261;-71
2023/07/16 00:15:29;;;;;;;2.50;2.00;;;24.70;83.90;;;;;;5071063;28;20313;-71
2023/07/16 00:17:56;;;;;;;1.93;1.83;;;24.70;83.90;;;;;;5070481;28;20201;-71
2023/07/16 00:20:23;;;;;;;3.00;1.80;;;24.60;84.10;;;;;;5070644;28;20229;-71
2023/07/16 00:22:50;;;;;;;2.03;1.80;;;24.60;84.30;;;;;;5090364;28;20243;-71
2023/07/16 00:25:19;;;;;;;2.10;1.80;;;24.50;84.30;;;;;;5090897;28;20203;-71
2023/07/16 00:27:47;;;;;;;1.73;1.63;;;24.60;84.40;;;;;;5090855;28;20188;-71
2023/07/16 00:30:14;;;;;;;1.60;1.50;;;24.50;83.80;;;;;;5091104;28;20226;-71
2023/07/16 00:32:41;;;;;;;2.10;1.90;;;24.50;83.80;;;;;;5090660;28;20250;-71
2023/07/16 00:35:08;;;;;;;2.17;1.97;;;24.50;83.80;;;;;;5090407;28;20199;-71
2023/07/16 00:37:35;;;;;;;3.03;1.60;;;24.40;84.00;;;;;;5090365;28;20196;-71
2023/07/16 00:40:04;;;;;;;1.87;1.67;;;24.30;83.60;;;;;;5090688;28;20215;-71
2023/07/16 00:42:32;;;;;;;3.40;1.80;;;24.30;83.70;;;;;;5088439;28;20234;-71
2023/07/16 00:44:59;;;;;;;1.47;1.37;;;24.20;83.10;;;;;;5090125;28;20196;-70
2023/07/16 00:47:26;;;;;;;2.03;1.67;;;24.00;83.00;;;;;;5087889;28;20835;-71
2023/07/16 00:49:53;;;;;;;1.87;1.70;;;24.00;83.40;;;;;;5087893;28;20216;-71
2023/07/16 00:52:21;;;;;;;1.90;1.60;;;23.80;83.10;;;;;;5088074;28;20269;-71
2023/07/16 00:54:49;;;;;;;2.20;2.00;;;23.80;83.50;;;;;;5085956;28;20200;-71
2023/07/16 00:57:16;;;;;;;2.07;1.60;;;23.80;83.30;;;;;;5086665;28;20208;-71
2023/07/16 00:59:44;;;;;;;2.07;1.50;;;23.90;83.10;;;;;;5088994;28;20207;-71
2023/07/16 01:02:11;;;;;;;2.23;1.60;;;23.90;83.00;;;;;;5072296;28;20196;-71
2023/07/16 01:04:38;;;;;;;1.60;1.50;;;23.90;82.50;;;;;;5075082;28;20224;-71
2023/07/16 01:07:09;;;;;;;2.03;1.70;;;23.60;81.50;;;;;;5075656;28;20692;-71
2023/07/16 01:09:37;;;;;;;2.30;1.37;;;23.50;82.50;;;;;;5081655;28;20228;-71
2023/07/16 01:12:06;;;;;;;2.90;1.80;;;23.40;83.60;;;;;;5069353;28;20213;-71
2023/07/16 01:14:33;;;;;;;2.10;1.70;;;23.40;83.40;;;;;;5041938;28;20226;-71
2023/07/16 01:17:06;;;;;;;2.13;1.70;;;23.50;84.30;;;;;;5068341;28;20214;-71
2023/07/16 01:19:33;;;;;;;2.53;1.57;;;23.50;83.60;;;;;;5075246;28;20220;-73
2023/07/16 01:22:11;;;;;;;2.17;1.70;;;23.50;83.50;;;;;;5089793;28;20595;-73
2023/07/16 01:24:59;;;;;;;2.03;1.50;;;23.60;83.70;;;;;;5094489;28;20188;-72
2023/07/16 01:27:56;;;;;;;2.37;1.80;;;23.50;83.30;;;;;;5093758;28;20220;-71
2023/07/16 01:30:26;;;;;;;1.77;1.67;;;23.50;83.20;;;;;;5085649;28;20212;-70
2023/07/16 01:32:54;;;;;;;2.20;1.80;;;23.40;82.20;;;;;;5093659;28;20200;-71
2023/07/16 01:35:21;;;;;;;3.50;1.70;;;23.30;81.20;;;;;;5094022;28;20200;-72
2023/07/16 01:37:48;;;;;;;2.33;1.70;;;23.10;82.00;;;;;;5093835;28;20216;-72
2023/07/16 01:40:15;;;;;;;3.23;1.83;;;23.10;82.00;;;;;;5093876;28;20208;-72
2023/07/16 01:42:42;;;;;;;2.43;1.83;;;23.10;81.90;;;;;;5093949;28;20211;-72
2023/07/16 01:45:09;;;;;;;2.27;1.63;;;23.10;81.90;;;;;;5093626;28;20208;-72
2023/07/16 01:47:49;;;;;;;2.47;1.93;;;23.00;81.70;;;;;;5093135;28;20220;-72
2023/07/16 01:50:16;;;;;;;1.70;1.50;;;23.00;82.60;;;;;;5090470;28;20294;-72
2023/07/16 01:52:43;;;;;;;2.87;1.77;;;23.00;82.10;;;;;;5092219;28;20230;-72
2023/07/16 01:55:10;;;;;;;3.40;1.90;;;23.10;82.00;;;;;;5093506;28;20207;-71
2023/07/16 01:57:37;;;;;;;2.47;1.70;;;23.20;81.80;;;;;;5088936;28;20674;-72
2023/07/16 02:00:04;;;;;;;2.87;1.70;;;23.20;81.20;;;;;;5082271;28;20317;-72
2023/07/16 02:02:31;;;;;;;1.87;1.40;;;23.10;81.00;;;;;;5087840;28;20238;-72
2023/07/16 02:04:59;;;;;;;1.77;1.63;;;23.10;81.00;;;;;;5083479;28;20201;-72
2023/07/16 02:07:26;;;;;;;1.60;1.50;;;23.10;80.70;;;;;;5089909;28;20204;-70
2023/07/16 02:09:53;;;;;;;2.03;1.50;;;23.20;81.10;;;;;;5087040;28;20442;-72
2023/07/16 02:12:20;;;;;;;4.23;1.60;;;23.10;80.50;;;;;;5086524;28;20636;-72
2023/07/16 02:14:46;;;;;;;2.83;1.70;;;23.10;80.60;;;;;;5091454;28;20196;-72
2023/07/16 02:17:13;;;;;;;2.30;1.63;;;23.10;80.50;;;;;;5087589;28;20555;-72
2023/07/16 02:19:40;;;;;;;2.43;2.10;;;23.10;80.50;;;;;;5086563;28;20444;-72
2023/07/16 02:22:09;;;;;;;1.60;1.50;;;23.20;80.80;;;;;;5090004;28;20896;-72
2023/07/16 02:24:36;;;;;;;3.37;1.70;;;23.20;80.60;;;;;;5091810;28;20207;-72
2023/07/16 02:27:03;;;;;;;2.30;1.93;;;23.20;80.40;;;;;;5090237;28;20204;-72
2023/07/16 02:29:30;;;;;;;1.93;1.60;;;23.20;80.40;;;;;;5090245;28;20228;-72
2023/07/16 02:31:57;;;;;;;2.23;1.37;;;23.20;80.10;;;;;;5087373;28;20285;-72
2023/07/16 02:34:24;;;;;;;2.33;1.77;;;23.20;80.40;;;;;;5092302;28;20576;-72
2023/07/16 02:36:50;;;;;;;2.03;1.63;;;23.20;81.40;;;;;;5092900;28;20247;-72
2023/07/16 02:39:18;;;;;;;2.87;1.83;;;23.20;80.70;;;;;;5092914;28;20620;-72
2023/07/16 02:41:45;;;;;;;3.17;1.90;;;23.20;80.70;;;;;;5092444;28;20196;-72
2023/07/16 02:44:11;;;;;;;3.10;1.77;;;23.20;81.10;;;;;;5073266;28;20236;-72
2023/07/16 02:46:38;;;;;;;2.30;1.77;;;23.30;81.20;;;;;;5082889;28;20207;-72
2023/07/16 02:49:05;;;;;;;3.07;1.97;;;23.30;81.00;;;;;;5092282;28;20591;-72
2023/07/16 02:51:32;;;;;;;1.60;1.50;;;23.20;80.80;;;;;;5092364;28;20307;-72
2023/07/16 02:53:59;;;;;;;2.33;1.90;;;23.20;81.20;;;;;;5092628;28;20202;-72
2023/07/16 02:56:27;;;;;;;2.07;1.87;;;23.20;81.40;;;;;;5092082;28;20296;-72
2023/07/16 02:58:55;;;;;;;2.50;1.50;;;23.20;81.40;;;;;;5076775;28;20295;-71
2023/07/16 03:01:22;;;;;;;2.63;2.00;;;23.20;81.20;;;;;;5080502;28;20210;-72
2023/07/16 03:03:49;;;;;;;3.43;2.03;;;23.10;81.20;;;;;;5082883;28;20228;-72
2023/07/16 03:06:16;;;;;;;3.03;1.57;;;23.20;81.20;;;;;;5086979;28;20198;-72
2023/07/16 03:08:45;;;;;;;2.07;1.70;;;23.20;80.90;;;;;;5077770;28;20218;-72
2023/07/16 03:11:12;;;;;;;2.00;1.80;;;23.20;80.60;;;;;;5082956;28;20224;-72
2023/07/16 03:13:40;;;;;;;2.63;2.07;;;23.10;80.20;;;;;;5085244;28;20261;-72
2023/07/16 03:16:07;;;;;;;2.20;1.77;;;23.10;80.60;;;;;;5089343;28;20213;-71
2023/07/16 03:18:34;;;;;;;1.97;1.70;;;23.10;80.40;;;;;;5077603;28;20202;-72
2023/07/16 03:21:00;;;;;;;3.53;1.80;;;23.00;80.80;;;;;;5088948;28;20220;-72
2023/07/16 03:23:27;;;;;;;1.97;1.70;;;22.90;80.20;;;;;;5076641;28;20204;-73
2023/07/16 03:25:54;;;;;;;3.70;1.97;;;22.80;80.40;;;;;;5086360;28;20377;-72
2023/07/16 03:28:21;;;;;;;3.33;1.87;;;22.70;81.60;;;;;;5081749;28;20559;-70
2023/07/16 03:30:51;;;;;;;3.73;1.83;;;22.60;80.80;;;;;;5083356;28;20227;-70
2023/07/16 03:33:19;;;;;;;4.97;2.10;;;22.50;81.10;;;;;;5080591;28;20209;-73
2023/07/16 03:35:48;;;;;;;1.70;1.60;;;22.50;81.10;;;;;;5078827;28;20673;-73
2023/07/16 03:38:16;;;;;;;2.70;1.90;;;22.50;81.30;;;;;;5082509;28;20864;-72
2023/07/16 03:40:48;;;;;;;3.93;1.83;;;22.50;81.40;;;;;;5078584;28;20215;-72
2023/07/16 03:43:15;;;;;;;3.20;2.07;;;22.50;81.50;;;;;;5085104;28;20207;-73
2023/07/16 03:45:42;;;;;;;1.77;1.67;;;22.60;81.40;;;;;;5087218;28;20694;-70
2023/07/16 03:48:10;;;;;;;2.20;1.87;;;22.60;81.70;;;;;;5089991;28;20575;-72
2023/07/16 03:50:37;;;;;;;3.73;2.40;;;22.60;81.70;;;;;;5084649;28;20225;-73
2023/07/16 03:53:04;;;;;;;3.57;2.20;;;22.60;81.40;;;;;;5080394;28;20225;-72
2023/07/16 03:55:31;;;;;;;2.13;1.90;;;22.70;81.70;;;;;;5089129;28;20196;-73
2023/07/16 03:57:58;;;;;;;3.90;2.00;;;22.70;81.60;;;;;;5083316;28;20192;-70
2023/07/16 04:00:25;;;;;;;3.33;2.10;;;22.70;81.90;;;;;;5089558;28;20292;-71
2023/07/16 04:02:52;;;;;;;3.93;2.10;;;22.70;81.90;;;;;;5084282;28;20212;-71
2023/07/16 04:05:20;;;;;;;4.17;2.00;;;22.70;81.90;;;;;;5078360;28;20258;-71
2023/07/16 04:07:47;;;;;;;2.50;1.70;;;22.70;82.70;;;;;;5085102;28;20217;-71
2023/07/16 04:10:14;;;;;;;2.40;1.97;;;22.70;82.00;;;;;;5087147;28;20307;-71
2023/07/16 04:12:41;;;;;;;2.50;1.83;;;22.80;82.00;;;;;;5084734;28;20227;-71
2023/07/16 04:15:10;;;;;;;2.33;1.80;;;22.80;82.30;;;;;;5084395;28;20213;-70
2023/07/16 04:17:37;;;;;;;2.87;1.83;;;22.80;82.20;;;;;;5078326;28;20250;-72
2023/07/16 04:20:06;;;;;;;2.00;1.80;;;22.70;81.80;;;;;;5090255;28;20218;-72
2023/07/16 04:22:34;;;;;;;2.13;1.90;;;22.70;81.90;;;;;;5091911;28;20216;-72
2023/07/16 04:25:01;;;;;;;2.53;1.83;;;22.70;82.00;;;;;;5091204;28;20204;-71
2023/07/16 04:27:28;;;;;;;4.80;2.10;;;22.50;82.10;;;;;;5091993;28;20231;-72
2023/07/16 04:29:55;;;;;;;3.20;1.90;;;22.50;82.50;;;;;;5087459;28;20291;-72
2023/07/16 04:32:22;;;;;;;2.30;1.73;;;22.50;82.70;;;;;;5086213;28;20215;-72
2023/07/16 04:34:49;;;;;;;3.57;1.80;;;22.60;82.60;;;;;;5091567;28;20205;-72
2023/07/16 04:37:16;;;;;;;2.13;1.77;;;22.70;82.60;;;;;;5091744;28;20215;-72
2023/07/16 04:39:44;;;;;;;2.60;1.77;;;22.80;82.50;;;;;;5091264;28;20260;-72
2023/07/16 04:42:11;;;;;;;2.07;1.80;;;22.90;82.40;;;;;;5089486;28;20290;-72
2023/07/16 04:44:38;;;;;;;3.67;1.97;;;22.90;81.80;;;;;;5086140;28;20284;-72
2023/07/16 04:47:05;;;;;;;2.07;1.67;;;22.80;81.80;;;;;;5091401;28;20224;-72
2023/07/16 04:49:35;;;;;;;1.90;1.80;;;22.80;81.90;;;;;;5091740;28;20222;-72
2023/07/16 04:52:02;;;;;;;2.93;1.83;;;22.90;81.90;;;;;;5084402;28;20319;-72
2023/07/16 04:54:29;;;;;;;2.23;1.70;;;22.90;81.70;;;;;;5082553;28;20280;-72
2023/07/16 04:56:57;;;;;;;3.37;1.90;;;22.90;81.70;;;;;;5080285;28;20288;-72
2023/07/16 04:59:24;;;;;;;2.40;2.03;;;22.90;81.60;;;;;;5091527;28;20701;-72
2023/07/16 05:01:51;;;;;;;1.70;1.60;;;22.90;81.10;;;;;;5087229;28;20236;-72
2023/07/16 05:04:17;;;;;;;3.30;1.90;;;22.80;81.20;;;;;;5082699;28;20196;-72
2023/07/16 05:06:44;;;;;;;1.70;1.60;;;22.80;81.00;;;;;;5090532;28;20211;-72
2023/07/16 05:09:11;;;;;;;1.93;1.70;;;22.80;81.00;;;;;;5075362;28;20197;-72
2023/07/16 05:11:38;;;;;;;3.80;2.00;;;22.80;80.80;;;;;;5084917;28;20320;-72
2023/07/16 05:14:06;;;;;;;3.27;2.37;;;22.80;80.80;;;;;;5081147;28;20213;-72
2023/07/16 05:16:33;;;;;;;3.83;1.73;;;22.80;81.00;;;;;;5083316;28;20230;-72
2023/07/16 05:19:00;;;;;;;1.80;1.70;;;22.80;80.90;;;;;;5093102;28;20256;-72
2023/07/16 05:21:27;;;;;;;3.53;1.73;;;22.80;80.70;;;;;;5088189;28;20193;-72
2023/07/16 05:23:54;;;;;;;3.30;1.90;;;22.80;80.40;;;;;;5085615;28;20701;-72
2023/07/16 05:26:21;;;;;;;3.93;1.60;;;22.80;80.60;;;;;;5082735;28;20203;-72
2023/07/16 05:28:48;;;;;;;3.50;1.90;;;22.90;80.60;;;;;;5075106;28;20216;-72
2023/07/16 05:31:16;;;;;;;1.60;1.43;;;22.90;80.30;;;;;;5083220;28;20311;-72
2023/07/16 05:33:43;;;;;;;2.40;1.70;;;22.90;80.10;;;;;;5090616;28;20585;-72
2023/07/16 05:36:09;;;;;;;4.20;2.07;;;22.90;80.00;;;;;;5092706;28;20280;-72
2023/07/16 05:38:36;;;;;;;4.07;2.00;;;22.90;80.00;;;;;;5076591;28;20743;-72
2023/07/16 05:41:04;;;;;;;3.03;1.73;;;22.90;80.10;;;;;;5090027;28;20291;-72
2023/07/16 05:43:31;;;;;;;3.17;1.77;;;22.80;79.70;;;;;;5090296;28;20208;-71
2023/07/16 05:45:58;;;;;;;2.37;1.90;;;22.80;79.90;;;;;;5089433;28;20571;-72
2023/07/16 05:48:26;;;;;;;4.07;1.50;;;22.90;79.70;;;;;;5093964;28;20210;-72
2023/07/16 05:50:53;;;;;;;2.33;1.60;;;22.90;79.70;;;;;;5091543;28;20641;-72
2023/07/16 05:53:20;;;;;;;2.00;1.80;;;22.80;79.30;;;;;;5092884;28;20231;-72
2023/07/16 05:55:49;;;;;;;1.80;1.60;;;22.70;79.40;;;;;;5092884;28;20292;-71
2023/07/16 05:58:16;;;;;;;2.23;1.90;;;22.70;79.70;;;;;;5071953;28;20311;-72
2023/07/16 06:00:43;;;;;;;3.17;1.97;;;22.80;79.70;;;;;;5088422;28;20209;-72
2023/07/16 06:03:10;;;;;;;2.70;1.60;;;22.70;79.20;;;;;;5092612;28;20216;-72
2023/07/16 06:05:38;;;;;;;5.00;1.80;;;22.90;79.50;;;;;;5092539;28;20287;-72
2023/07/16 06:08:05;;;;;;;2.53;1.70;;;23.00;78.90;;;;;;5087109;28;20298;-72
2023/07/16 06:10:34;;;;;;;2.20;2.00;;;22.90;78.50;;;;;;5077968;28;20225;-72
2023/07/16 06:13:01;;;;;;;3.40;1.73;;;23.00;78.60;;;;;;5088381;28;20257;-72
2023/07/16 06:15:28;;;;;;;1.97;1.60;;;23.10;78.20;;;;;;5087078;28;20371;-72
2023/07/16 06:17:55;;;;;;;3.43;1.70;;;23.20;78.00;;;;;;5083195;28;20205;-72
2023/07/16 06:20:22;;;;;;;2.43;1.87;;;23.10;77.30;;;;;;5093728;28;20303;-72
2023/07/16 06:22:50;;;;;;;2.93;1.80;;;23.20;77.40;;;;;;5094290;28;20291;-72
2023/07/16 06:25:17;;;;;;;3.13;1.53;;;23.20;77.20;;;;;;5094382;28;20196;-72
2023/07/16 06:27:44;;;;;;;2.60;1.90;;;23.30;77.40;;;;;;5094330;28;20201;-72
2023/07/16 06:30:11;;;;;;;3.77;2.00;;;23.30;76.90;;;;;;5094362;28;20219;-72
2023/07/16 06:32:38;;;;;;;2.63;1.90;;;23.30;77.00;;;;;;5094080;28;20223;-72
2023/07/16 06:35:05;;;;;;;9.23;2.30;;;23.30;76.30;;;;;;5094096;28;20286;-72
2023/07/16 06:37:32;;;;;;;3.27;1.80;;;23.40;75.80;;;;;;5093976;28;20235;-72
2023/07/16 06:40:00;;;;;;;3.03;1.90;;;23.40;75.50;;;;;;5094124;28;20225;-71
2023/07/16 06:42:27;;;;;;;2.07;1.63;;;23.50;75.70;;;;;;5089053;28;20578;-72
2023/07/16 06:44:54;;;;;;;4.50;2.03;;;23.50;74.90;;;;;;5079530;28;20196;-71
2023/07/16 06:47:20;;;;;;;3.43;1.83;;;23.50;75.20;;;;;;5093515;28;20215;-72
2023/07/16 06:49:47;;;;;;;2.60;2.10;;;23.60;74.70;;;;;;5085645;28;20207;-71
2023/07/16 06:52:21;;;;;;;4.17;1.90;;;23.70;74.40;;;;;;5087250;28;20217;-72
2023/07/16 06:54:48;;;;;;;3.43;1.70;;;23.80;73.30;;;;;;5092475;28;20231;-72
2023/07/16 06:57:16;;;;;;;4.60;1.90;;;23.80;73.00;;;;;;5091036;28;20204;-72
2023/07/16 06:59:43;;;;;;;2.40;1.80;;;23.70;71.50;;;;;;5091764;28;20273;-72
2023/07/16 07:02:09;;;;;;;4.90;1.93;;;23.70;72.40;;;;;;5091930;28;20188;-72
2023/07/16 07:04:36;;;;;;;5.13;1.90;;;23.80;73.00;;;;;;5077366;28;20231;-72
2023/07/16 07:07:03;;;;;;;2.90;1.90;;;23.90;73.30;;;;;;5082408;28;20589;-72
2023/07/16 07:09:30;;;;;;;4.83;1.80;;;23.90;72.60;;;;;;5091665;28;20193;-71
2023/07/16 07:11:57;;;;;;;2.93;1.97;;;24.00;71.30;;;;;;5093138;28;20791;-71
2023/07/16 07:14:25;;;;;;;5.20;1.87;;;24.00;70.00;;;;;;5088965;28;20200;-71
2023/07/16 07:16:52;;;;;;;4.57;2.10;;;24.00;69.70;;;;;;5081382;28;20208;-71
2023/07/16 07:19:19;;;;;;;3.30;1.57;;;24.00;70.00;;;;;;5088711;28;20248;-72
2023/07/16 07:21:46;;;;;;;3.63;1.90;;;24.10;68.90;;;;;;5080084;28;20208;-71
2023/07/16 07:24:13;;;;;;;6.37;2.70;;;24.10;69.20;;;;;;5090219;28;20327;-72
2023/07/16 07:26:40;;;;;;;5.53;2.33;;;24.00;69.30;;;;;;5085268;28;20279;-71
2023/07/16 07:29:07;;;;;;;6.97;2.40;;;24.00;68.30;;;;;;5085669;28;20604;-72
2023/07/16 07:31:35;;;;;;;5.00;2.17;;;24.00;68.70;;;;;;5083330;28;20303;-71
2023/07/16 07:34:02;;;;;;;3.33;1.80;;;24.00;69.30;;;;;;5092868;28;20200;-71
2023/07/16 07:36:30;;;;;;;7.63;1.90;;;24.00;68.40;;;;;;5092635;28;20228;-72
2023/07/16 07:38:57;;;;;;;4.40;2.00;;;23.90;68.00;;;;;;5092374;28;20200;-72
2023/07/16 07:41:23;;;;;;;4.47;1.80;;;23.90;68.60;;;;;;5074290;28;20223;-72
2023/07/16 07:43:50;;;;;;;3.57;1.77;;;24.00;68.90;;;;;;5077242;28;20232;-72
2023/07/16 07:46:17;;;;;;;3.53;1.87;;;24.10;69.10;;;;;;5083712;28;20233;-71
2023/07/16 07:48:45;;;;;;;7.37;2.17;;;24.20;68.20;;;;;;5072093;28;20260;-72
2023/07/16 07:51:12;;;;;;;3.00;1.90;;;24.20;67.70;;;;;;5087731;28;20216;-72
2023/07/16 07:53:40;;;;;;;4.63;2.17;;;24.40;67.50;;;;;;5076648;28;20249;-72
2023/07/16 07:56:06;;;;;;;3.70;1.80;;;24.50;67.60;;;;;;5088589;28;20202;-72
2023/07/16 07:58:33;;;;;;;7.27;2.30;;;24.70;67.20;;;;;;5087505;28;20204;-72
2023/07/16 08:01:05;;;;;;;3.67;2.10;;;24.80;67.40;;;;;;5075778;28;20231;-72
2023/07/16 08:03:32;;;;;;;2.50;2.10;;;24.80;66.90;;;;;;5072381;28;20280;-72
2023/07/16 08:06:00;;;;;;;3.23;1.77;;;24.80;66.70;;;;;;5072329;28;20591;-72
2023/07/16 08:08:27;;;;;;;3.30;2.10;;;24.90;66.90;;;;;;5074024;28;20610;-72
2023/07/16 08:10:54;;;;;;;4.20;2.13;;;25.00;66.20;;;;;;5090894;28;20222;-72
2023/07/16 08:13:21;;;;;;;5.30;2.00;;;25.00;65.10;;;;;;5085018;28;20198;-72
2023/07/16 08:15:48;;;;;;;4.10;2.10;;;24.90;65.00;;;;;;5088779;28;20291;-72
2023/07/16 08:18:15;;;;;;;3.13;2.10;;;24.80;65.40;;;;;;5092426;28;20623;-72
2023/07/16 08:20:42;;;;;;;5.17;2.00;;;24.70;66.80;;;;;;5080825;28;20252;-72
2023/07/16 08:23:10;;;;;;;3.67;1.90;;;24.80;66.30;;;;;;5089584;28;20303;-71
2023/07/16 08:25:37;;;;;;;5.87;2.00;;;24.60;66.20;;;;;;5092874;28;20200;-72
2023/07/16 08:28:04;;;;;;;4.07;1.93;;;24.50;66.40;;;;;;5091831;28;20200;-72
2023/07/16 08:30:32;;;;;;;3.97;3.00;;;24.40;66.80;;;;;;5085088;28;20208;-72
2023/07/16 08:32:59;;;;;;;5.47;2.40;;;24.50;67.40;;;;;;5089549;28;20302;-72
2023/07/16 08:35:26;;;;;;;4.97;1.90;;;24.50;66.90;;;;;;5091670;28;20246;-72
2023/07/16 08:37:53;;;;;;;2.50;2.00;;;24.40;66.90;;;;;;5092301;28;20214;-71
2023/07/16 08:40:21;;;;;;;3.53;2.17;;;24.40;66.90;;;;;;5086421;28;20233;-72
2023/07/16 08:42:50;;;;;;;4.70;2.40;;;24.40;67.40;;;;;;5082487;28;20226;-72
2023/07/16 08:45:20;;;;;;;4.73;1.90;;;24.60;67.10;;;;;;5092201;28;20213;-72
2023/07/16 08:47:47;;;;;;;5.53;2.57;;;24.60;67.10;;;;;;5089299;28;20532;-72
2023/07/16 08:50:14;;;;;;;5.13;2.00;;;24.70;67.10;;;;;;5091677;28;20200;-71
2023/07/16 08:52:41;;;;;;;3.83;2.40;;;24.60;66.60;;;;;;5091354;28;20335;-71
2023/07/16 08:55:08;;;;;;;3.53;1.80;;;24.70;66.40;;;;;;5089855;28;20243;-71
2023/07/16 08:57:38;;;;;;;3.33;1.97;;;24.70;66.30;;;;;;5080416;28;20231;-72
2023/07/16 09:00:07;;;;;;;5.10;2.30;;;24.60;65.10;;;;;;5079795;28;20211;-73
2023/07/16 09:02:34;;;;;;;3.00;1.90;;;24.60;65.60;;;;;;5080356;28;20194;-72
2023/07/16 09:05:02;;;;;;;4.23;2.30;;;24.70;65.10;;;;;;5088301;28;20196;-72
2023/07/16 09:07:28;;;;;;;4.00;2.00;;;24.70;64.10;;;;;;5090636;28;20203;-72
2023/07/16 09:09:59;;;;;;;5.43;2.47;;;24.70;64.40;;;;;;5090575;28;20234;-72
2023/07/16 09:12:27;;;;;;;4.27;2.37;;;24.80;64.80;;;;;;5090484;28;20224;-72
2023/07/16 09:14:56;;;;;;;3.63;2.20;;;24.80;64.90;;;;;;5089426;28;20296;-72
2023/07/16 09:17:24;;;;;;;5.13;2.13;;;24.90;65.20;;;;;;5090700;28;20710;-72
2023/07/16 09:19:51;;;;;;;4.13;1.93;;;25.00;65.30;;;;;;5090492;28;20236;-72
2023/07/16 09:22:18;;;;;;;4.53;2.30;;;25.20;65.00;;;;;;5090471;28;20221;-72
2023/07/16 09:24:46;;;;;;;5.13;2.00;;;25.40;64.70;;;;;;5090406;28;20258;-72
2023/07/16 09:27:14;;;;;;;5.03;2.30;;;25.40;64.10;;;;;;5091154;28;20211;-72
2023/07/16 09:29:41;;;;;;;6.57;2.30;;;25.40;63.00;;;;;;5090465;28;20229;-72
2023/07/16 09:32:09;;;;;;;4.73;2.53;;;25.40;63.00;;;;;;5090606;28;20337;-72
2023/07/16 09:34:36;;;;;;;4.80;2.27;;;25.60;63.30;;;;;;5090788;28;20212;-72
2023/07/16 09:37:05;;;;;;;6.03;2.27;;;25.70;61.90;;;;;;5090870;28;20295;-72
2023/07/16 09:39:33;;;;;;;6.03;2.17;;;26.00;60.70;;;;;;5090803;28;20208;-72
2023/07/16 09:42:00;;;;;;;5.07;2.10;;;26.20;60.10;;;;;;5090936;28;20227;-73
2023/07/16 09:44:27;;;;;;;6.53;2.40;;;26.30;58.70;;;;;;5091814;28;20219;-70
2023/07/16 09:46:54;;;;;;;4.37;2.20;;;26.20;58.60;;;;;;5094397;28;20204;-71
2023/07/16 09:49:22;;;;;;;5.97;2.20;;;26.20;58.60;;;;;;5094238;28;20204;-73
2023/07/16 09:51:53;;;;;;;6.47;2.40;;;26.30;58.10;;;;;;5094330;28;20313;-73
2023/07/16 09:54:21;;;;;;;4.40;2.13;;;26.40;57.70;;;;;;5094751;28;20313;-72
2023/07/16 09:56:51;;;;;;;5.63;2.70;;;26.60;57.30;;;;;;5094012;28;20212;-72
2023/07/16 09:59:21;;;;;;;5.87;2.90;;;26.50;56.10;;;;;;5093547;28;20213;-72
2023/07/16 10:01:49;;;;;;;4.43;2.20;;;26.30;55.10;;;;;;5093913;28;20205;-73
2023/07/16 10:04:18;;;;;;;6.77;2.20;;;26.30;56.90;;;;;;5093874;28;20216;-71
2023/07/16 10:06:57;;;;;;;7.13;2.30;;;26.40;56.80;;;;;;5093852;28;20201;-70
2023/07/16 10:09:34;;;;;;;3.47;2.20;;;26.40;56.20;;;;;;5093862;28;20193;-72
2023/07/16 10:12:14;;;;;;;3.37;2.40;;;26.40;55.40;;;;;;5094028;28;20231;-72
2023/07/16 10:14:43;;;;;;;5.17;2.70;;;26.50;55.50;;;;;;5093600;28;20239;-72
2023/07/16 10:17:15;;;;;;;4.83;2.37;;;26.50;54.20;;;;;;5093559;28;20879;-73
2023/07/16 10:19:52;;;;;;;4.00;2.23;;;26.50;54.10;;;;;;5093540;28;20236;-72
2023/07/16 10:22:20;;;;;;;5.50;1.90;;;26.50;53.80;;;;;;5093856;28;20187;-71
2023/07/16 10:24:54;;;;;;;3.87;2.33;;;26.50;53.50;;;;;;5093464;28;20208;-73
2023/07/16 10:27:31;;;;;;;3.90;2.37;;;26.60;53.90;;;;;;5093057;28;20712;-72
2023/07/16 10:29:59;;;;;;;3.30;2.27;;;26.80;55.00;;;;;;5093544;28;20212;-72
2023/07/16 10:32:29;;;;;;;2.97;1.77;;;27.00;54.40;;;;;;5093490;28;20233;-72
2023/07/16 10:34:56;;;;;;;2.97;2.20;;;27.00;51.00;;;;;;5093622;28;20205;-72
2023/07/16 10:37:24;;;;;;;6.20;2.40;;;26.90;51.70;;;;;;5093361;28;20207;-72
2023/07/16 10:39:53;;;;;;;6.20;2.30;;;26.90;52.30;;;;;;5093088;28;20238;-72
2023/07/16 10:42:20;;;;;;;3.50;2.13;;;26.90;53.00;;;;;;5093224;28;20198;-72
2023/07/16 10:44:51;;;;;;;3.27;2.20;;;27.10;52.20;;;;;;5093392;28;20301;-72
2023/07/16 10:47:23;;;;;;;5.80;2.47;;;26.90;51.00;;;;;;5093195;28;20563;-72
2023/07/16 10:49:51;;;;;;;3.57;2.20;;;26.80;52.20;;;;;;5092909;28;20681;-72
2023/07/16 10:52:19;;;;;;;4.47;2.27;;;26.90;52.30;;;;;;5093296;28;20384;-72
2023/07/16 10:54:48;;;;;;;4.83;2.30;;;27.10;53.00;;;;;;5093092;28;20206;-72
2023/07/16 10:57:17;;;;;;;5.30;2.40;;;27.20;51.90;;;;;;5092548;28;20306;-72
2023/07/16 10:59:45;;;;;;;4.33;2.67;;;27.20;52.10;;;;;;5092870;28;20218;-72
2023/07/16 11:02:13;;;;;;;3.97;2.90;;;27.10;50.90;;;;;;5092880;28;20208;-72
2023/07/16 11:04:41;;;;;;;3.60;1.90;;;27.00;50.60;;;;;;5093020;28;20238;-72
2023/07/16 11:07:09;;;;;;;3.87;2.20;;;27.10;51.20;;;;;;5092915;28;20207;-72
2023/07/16 11:09:41;;;;;;;4.67;2.20;;;27.30;52.10;;;;;;5092537;28;20225;-72
2023/07/16 11:12:10;;;;;;;5.50;2.33;;;27.40;51.60;;;;;;5092474;28;20600;-72
2023/07/16 11:14:38;;;;;;;4.97;2.53;;;27.50;51.30;;;;;;5092601;28;20218;-72
2023/07/16 11:17:09;;;;;;;4.73;2.40;;;27.60;52.20;;;;;;5092990;28;20211;-72
2023/07/16 11:19:36;;;;;;;3.90;2.37;;;27.70;50.80;;;;;;5092476;28;20216;-72
2023/07/16 11:22:05;;;;;;;5.47;2.70;;;27.70;48.90;;;;;;5092662;28;20209;-72
2023/07/16 11:24:38;;;;;;;3.90;2.30;;;27.70;50.20;;;;;;5092300;28;20320;-71
2023/07/16 11:27:07;;;;;;;3.17;1.90;;;27.70;50.50;;;;;;5092087;28;20198;-70
2023/07/16 11:29:38;;;;;;;3.50;2.10;;;27.60;50.40;;;;;;5091903;28;20214;-71
2023/07/16 11:32:06;;;;;;;3.57;2.10;;;27.70;48.40;;;;;;5092463;28;20195;-70
2023/07/16 11:34:33;;;;;;;3.53;2.10;;;27.60;50.10;;;;;;5092180;28;20202;-71
2023/07/16 11:37:10;;;;;;;4.43;2.50;;;27.70;48.80;;;;;;5092350;28;20324;-71
2023/07/16 11:39:37;;;;;;;4.67;2.07;;;27.70;50.10;;;;;;5091826;28;20216;-71
2023/07/16 11:42:05;;;;;;;3.70;2.00;;;27.80;49.60;;;;;;5090228;28;20225;-70
2023/07/16 11:44:35;;;;;;;3.67;1.97;;;27.90;49.90;;;;;;5071856;28;20707;-71
2023/07/16 11:47:04;;;;;;;3.23;1.60;;;28.00;48.40;;;;;;5071767;28;20209;-70
2023/07/16 11:49:31;;;;;;;3.97;2.37;;;28.20;48.50;;;;;;5071435;28;20232;-73
2023/07/16 11:51:59;;;;;;;2.83;2.00;;;28.20;48.30;;;;;;5071952;28;20198;-71
2023/07/16 11:54:26;;;;;;;2.80;1.83;;;28.30;49.30;;;;;;5071105;28;20224;-71
2023/07/16 11:56:52;;;;;;;4.63;2.50;;;28.40;48.70;;;;;;5071433;28;20316;-72
2023/07/16 11:59:20;;;;;;;3.67;2.30;;;28.40;47.90;;;;;;5070900;28;20817;-71
2023/07/16 12:01:50;;;;;;;3.67;1.63;;;28.20;48.30;;;;;;5070743;28;20204;-71
2023/07/16 12:04:19;;;;;;;4.30;2.20;;;28.30;48.20;;;;;;5071335;28;20599;-72
2023/07/16 12:06:46;;;;;;;5.07;2.27;;;28.30;46.80;;;;;;5070920;28;20836;-72
2023/07/16 12:09:13;;;;;;;3.80;2.30;;;28.20;47.40;;;;;;5070924;28;20775;-73
2023/07/16 12:11:40;;;;;;;3.67;1.93;;;28.30;48.00;;;;;;5071194;28;20201;-72
2023/07/16 12:14:07;;;;;;;3.47;2.40;;;28.30;48.10;;;;;;5071347;28;20314;-71
2023/07/16 12:16:34;;;;;;;2.90;2.00;;;28.40;47.70;;;;;;5071641;28;20200;-72
2023/07/16 12:19:01;;;;;;;4.07;2.20;;;28.50;48.20;;;;;;5071213;28;20204;-73
2023/07/16 12:21:29;;;;;;;2.77;1.90;;;28.70;47.50;;;;;;5070763;28;20297;-72
2023/07/16 12:23:56;;;;;;;4.43;2.03;;;28.70;46.80;;;;;;5071237;28;20216;-73
2023/07/16 12:26:23;;;;;;;3.77;2.17;;;28.80;46.60;;;;;;5071388;28;20520;-73
2023/07/16 12:28:49;;;;;;;6.73;2.83;;;28.80;45.40;;;;;;5071147;28;20303;-73
2023/07/16 12:31:16;;;;;;;3.83;2.17;;;28.90;46.20;;;;;;5071209;28;20327;-72
2023/07/16 12:33:43;;;;;;;4.53;2.20;;;28.90;46.00;;;;;;5071246;28;20227;-72
2023/07/16 12:36:10;;;;;;;3.97;2.63;;;28.80;45.40;;;;;;5071390;28;20288;-72
2023/07/16 12:38:38;;;;;;;4.37;2.27;;;28.70;45.90;;;;;;5070039;28;20571;-72
2023/07/16 12:41:05;;;;;;;3.17;2.10;;;28.80;46.00;;;;;;5070466;28;20240;-72
2023/07/16 12:43:34;;;;;;;4.03;2.33;;;28.80;46.40;;;;;;5085083;28;20192;-72
2023/07/16 12:46:02;;;;;;;4.53;2.00;;;28.80;45.80;;;;;;5091566;28;20215;-72
2023/07/16 12:48:29;;;;;;;3.07;1.90;;;28.70;45.60;;;;;;5091203;28;20223;-72
2023/07/16 12:50:56;;;;;;;4.97;2.57;;;28.80;46.30;;;;;;5091139;28;20196;-72